Time;durP1;ratioP1;P1;durP2;ratioP2;P2;SDS_P1;SDS_P2;PMS_P1;PMS_P2;Temp;Humidity;BMP_temperature;BMP_pressure;BME280_temperature;BME280_humidity;BME280_pressure;Samples;Min_cycle;Max_cycle;Signal;HPM_P1;HPM_P2
2023/10/18 00:01:49;;;;;;;5.70;5.20;;;;;;;;;;5084745;28;21463;-70
2023/10/18 00:04:17;;;;;;;5.50;5.20;;;;;;;;;;5080378;28;20439;-69
2023/10/18 00:06:47;;;;;;;8.60;7.20;;;;;;;;;;5087561;28;20439;-69
2023/10/18 00:11:59;;;;;;;8.20;5.73;;;;;;;;;;5083716;28;20513;-71
2023/10/18 00:14:25;;;;;;;6.40;5.83;;;;;;;;;;5086518;28;20477;-68
2023/10/18 00:16:51;;;;;;;5.43;5.00;;;;;;;;;;5086478;28;20441;-68
2023/10/18 00:19:17;;;;;;;6.83;6.10;;;;;;;;;;5086807;28;20499;-69
2023/10/18 00:21:44;;;;;;;5.70;5.30;;;;;;;;;;5089414;28;20415;-68
2023/10/18 00:24:10;;;;;;;9.63;5.30;;;;;;;;;;5086227;28;20446;-69
2023/10/18 00:26:36;;;;;;;10.80;5.23;;;;;;;;;;5083915;28;20436;-68
2023/10/18 00:29:02;;;;;;;6.50;5.90;;;;;;;;;;5087508;28;20456;-68
2023/10/18 00:31:28;;;;;;;5.47;5.00;;;;;;;;;;5089301;28;20937;-68
2023/10/18 00:33:54;;;;;;;6.57;6.00;;;;;;;;;;5089210;28;20524;-70
2023/10/18 00:36:20;;;;;;;5.40;5.07;;;;;;;;;;5090713;28;20424;-68
2023/10/18 00:38:47;;;;;;;6.60;5.03;;;;;;;;;;5090598;28;20971;-69
2023/10/18 00:41:21;;;;;;;6.17;5.63;;;;;;;;;;5092584;28;20814;-68
2023/10/18 00:43:47;;;;;;;6.37;5.67;;;;;;;;;;5087460;28;20535;-69
2023/10/18 00:46:16;;;;;;;7.17;6.30;;;;;;;;;;5087272;28;20905;-69
2023/10/18 00:48:44;;;;;;;5.37;5.00;;;;;;;;;;5091067;28;20436;-69
2023/10/18 00:51:11;;;;;;;8.70;5.47;;;;;;;;;;5088268;28;20437;-69
2023/10/18 00:53:38;;;;;;;5.40;4.90;;;;;;;;;;5088093;28;20835;-68
2023/10/18 00:56:04;;;;;;;3.80;3.50;;;;;;;;;;5084022;28;21116;-69
2023/10/18 00:58:34;;;;;;;5.80;5.30;;;;;;;;;;5090674;28;20448;-69
2023/10/18 01:01:10;;;;;;;5.90;5.30;;;;;;;;;;5086328;28;20444;-69
2023/10/18 01:03:49;;;;;;;5.67;5.27;;;;;;;;;;5085557;28;20424;-70
2023/10/18 01:06:17;;;;;;;12.47;5.47;;;;;;;;;;5091484;28;20428;-69
2023/10/18 01:08:44;;;;;;;6.07;5.53;;;;;;;;;;5090455;28;20416;-69
2023/10/18 01:11:11;;;;;;;5.50;5.10;;;;;;;;;;5091976;28;20777;-68
2023/10/18 01:13:42;;;;;;;6.43;5.60;;;;;;;;;;5086624;28;20429;-70
2023/10/18 01:16:12;;;;;;;6.33;5.83;;;;;;;;;;5085461;28;20440;-69
2023/10/18 01:18:42;;;;;;;9.73;5.23;;;;;;;;;;5090443;28;20478;-68
2023/10/18 01:21:19;;;;;;;5.00;4.80;;;;;;;;;;5089663;28;20505;-68
2023/10/18 01:23:49;;;;;;;5.07;4.73;;;;;;;;;;5089929;28;20427;-68
2023/10/18 01:26:15;;;;;;;4.20;3.90;;;;;;;;;;5088530;28;20441;-69
2023/10/18 01:28:41;;;;;;;4.13;4.00;;;;;;;;;;5086137;28;20433;-70
2023/10/18 01:31:07;;;;;;;5.30;4.70;;;;;;;;;;5089795;28;20447;-70
2023/10/18 01:33:35;;;;;;;4.63;4.43;;;;;;;;;;5083214;28;20433;-68
2023/10/18 01:36:01;;;;;;;5.37;4.87;;;;;;;;;;5090729;28;20546;-68
2023/10/18 01:38:30;;;;;;;7.67;5.63;;;;;;;;;;5090933;28;20471;-69
2023/10/18 01:41:00;;;;;;;5.00;4.60;;;;;;;;;;5089286;28;20602;-70
2023/10/18 01:43:28;;;;;;;5.53;5.07;;;;;;;;;;5088476;28;20468;-68
2023/10/18 01:45:54;;;;;;;5.60;5.20;;;;;;;;;;5088599;28;20509;-69
2023/10/18 01:48:20;;;;;;;5.50;5.00;;;;;;;;;;5091515;28;20413;-69
2023/10/18 01:50:50;;;;;;;6.70;4.30;;;;;;;;;;5089189;28;20451;-68
2023/10/18 01:53:16;;;;;;;5.50;5.10;;;;;;;;;;5089114;28;21024;-69
2023/10/18 01:55:46;;;;;;;5.23;4.00;;;;;;;;;;5087362;28;20432;-69
2023/10/18 01:58:13;;;;;;;5.90;5.30;;;;;;;;;;5089447;28;20518;-68
2023/10/18 02:00:44;;;;;;;7.70;5.30;;;;;;;;;;5089477;28;20487;-70
2023/10/18 02:03:11;;;;;;;6.50;5.30;;;;;;;;;;5086481;28;20440;-71
2023/10/18 02:05:38;;;;;;;5.67;5.20;;;;;;;;;;5087140;28;20424;-68
2023/10/18 02:08:05;;;;;;;9.37;6.80;;;;;;;;;;5091056;28;20478;-68
2023/10/18 02:10:32;;;;;;;10.43;6.97;;;;;;;;;;5089048;28;20565;-68
2023/10/18 02:12:58;;;;;;;8.63;6.70;;;;;;;;;;5084257;28;20916;-69
2023/10/18 02:15:24;;;;;;;12.60;6.53;;;;;;;;;;5087773;28;20432;-68
2023/10/18 02:17:56;;;;;;;8.73;7.07;;;;;;;;;;5088006;28;20462;-69
2023/10/18 02:20:26;;;;;;;6.60;5.90;;;;;;;;;;5086391;28;20488;-68
2023/10/18 02:22:59;;;;;;;7.43;5.23;;;;;;;;;;5088174;28;20429;-70
2023/10/18 02:28:22;;;;;;;5.57;5.17;;;;;;;;;;5089362;28;20451;-70
2023/10/18 02:31:07;;;;;;;7.53;5.17;;;;;;;;;;5088116;28;20485;-68
2023/10/18 02:33:36;;;;;;;4.47;4.27;;;;;;;;;;5088534;28;20467;-68
2023/10/18 02:36:05;;;;;;;4.53;4.23;;;;;;;;;;5085214;28;20448;-68
2023/10/18 02:38:32;;;;;;;5.57;5.10;;;;;;;;;;5087842;28;20449;-69
2023/10/18 02:41:01;;;;;;;5.27;4.97;;;;;;;;;;5089218;28;20745;-70
2023/10/18 02:43:29;;;;;;;4.30;4.10;;;;;;;;;;5089076;28;20444;-69
2023/10/18 02:45:55;;;;;;;6.67;5.93;;;;;;;;;;5090397;28;20537;-68
2023/10/18 02:48:24;;;;;;;5.50;5.00;;;;;;;;;;5087035;28;20939;-68
2023/10/18 02:50:54;;;;;;;5.93;5.37;;;;;;;;;;5090249;28;20484;-69
2023/10/18 02:53:20;;;;;;;5.30;5.00;;;;;;;;;;5085020;28;20440;-69
2023/10/18 02:55:55;;;;;;;6.70;4.73;;;;;;;;;;5088922;28;20425;-69
2023/10/18 02:58:21;;;;;;;5.43;5.03;;;;;;;;;;5084998;28;20809;-68
2023/10/18 03:00:49;;;;;;;5.13;4.83;;;;;;;;;;5089158;28;20480;-68
2023/10/18 03:03:15;;;;;;;5.60;5.20;;;;;;;;;;5088195;28;20507;-68
2023/10/18 03:05:41;;;;;;;5.23;4.83;;;;;;;;;;5090082;28;20420;-68
2023/10/18 03:08:08;;;;;;;5.23;4.83;;;;;;;;;;5087116;28;20447;-69
2023/10/18 03:10:44;;;;;;;4.60;4.40;;;;;;;;;;5089717;28;20495;-68
2023/10/18 03:13:11;;;;;;;6.73;5.10;;;;;;;;;;5087539;28;20432;-70
2023/10/18 03:15:52;;;;;;;4.67;4.47;;;;;;;;;;5089703;28;20420;-69
2023/10/18 03:18:19;;;;;;;6.40;5.90;;;;;;;;;;5089428;28;20533;-69
2023/10/18 03:20:45;;;;;;;5.13;4.83;;;;;;;;;;5085832;28;20587;-68
2023/10/18 03:23:13;;;;;;;6.80;5.13;;;;;;;;;;5085905;28;20807;-68
2023/10/18 03:25:39;;;;;;;6.10;5.60;;;;;;;;;;5086794;28;20801;-70
2023/10/18 03:28:05;;;;;;;5.83;5.07;;;;;;;;;;5086240;28;20531;-69
2023/10/18 03:33:12;;;;;;;5.13;4.60;;;;;;;;;;5086889;28;20424;-69
2023/10/18 03:35:40;;;;;;;4.57;4.37;;;;;;;;;;5089142;28;20439;-68
2023/10/18 03:38:17;;;;;;;5.13;4.83;;;;;;;;;;5088329;28;20645;-69
2023/10/18 03:40:56;;;;;;;6.53;5.23;;;;;;;;;;5086687;28;21003;-70
2023/10/18 03:43:32;;;;;;;5.60;4.60;;;;;;;;;;5086625;28;20442;-69
2023/10/18 03:46:18;;;;;;;9.00;5.67;;;;;;;;;;5087326;28;20451;-70
2023/10/18 03:48:46;;;;;;;6.37;5.73;;;;;;;;;;5087478;28;20435;-70
2023/10/18 03:51:18;;;;;;;11.70;4.83;;;;;;;;;;5086608;28;20432;-68
2023/10/18 03:53:45;;;;;;;11.87;5.30;;;;;;;;;;5084374;28;20456;-69
2023/10/18 03:56:13;;;;;;;5.23;4.90;;;;;;;;;;5085350;28;20464;-71
2023/10/18 03:58:42;;;;;;;10.47;4.50;;;;;;;;;;5089603;28;20452;-70
2023/10/18 04:01:12;;;;;;;4.53;4.10;;;;;;;;;;5088274;28;20424;-69
2023/10/18 04:03:39;;;;;;;5.33;4.93;;;;;;;;;;5084794;28;20847;-68
2023/10/18 04:06:08;;;;;;;6.17;5.17;;;;;;;;;;5090900;28;20440;-69
2023/10/18 04:08:36;;;;;;;12.03;4.67;;;;;;;;;;5090135;28;20928;-68
2023/10/18 04:11:02;;;;;;;5.73;5.23;;;;;;;;;;5092268;28;20465;-68
2023/10/18 04:13:31;;;;;;;7.57;6.47;;;;;;;;;;5088192;28;20434;-68
2023/10/18 04:15:59;;;;;;;5.90;5.57;;;;;;;;;;5086626;28;20445;-69
2023/10/18 04:18:26;;;;;;;5.00;4.77;;;;;;;;;;5091675;28;20948;-69
2023/10/18 04:20:52;;;;;;;4.50;4.20;;;;;;;;;;5091256;28;20503;-69
2023/10/18 04:23:20;;;;;;;5.07;4.20;;;;;;;;;;5087455;28;20420;-68
2023/10/18 04:25:57;;;;;;;4.97;4.67;;;;;;;;;;5087560;28;20538;-68
2023/10/18 04:28:23;;;;;;;5.07;4.67;;;;;;;;;;5089054;28;20424;-69
2023/10/18 04:30:51;;;;;;;5.30;4.90;;;;;;;;;;5092204;28;20421;-68
2023/10/18 04:35:46;;;;;;;5.60;5.07;;;;;;;;;;5090183;28;20447;-68
2023/10/18 04:38:30;;;;;;;6.53;6.03;;;;;;;;;;5091614;28;20416;-69
2023/10/18 04:41:08;;;;;;;7.77;5.40;;;;;;;;;;5089980;28;20502;-68
2023/10/18 04:43:34;;;;;;;5.33;5.03;;;;;;;;;;5087814;28;20428;-68
2023/10/18 04:54:01;;;;;;;7.63;5.63;;;;;;;;;;5089144;28;20501;-67
2023/10/18 04:56:43;;;;;;;4.60;4.30;;;;;;;;;;5089926;28;20476;-68
2023/10/18 04:59:11;;;;;;;4.73;4.43;;;;;;;;;;5089869;28;20472;-67
2023/10/18 05:01:42;;;;;;;4.20;4.00;;;;;;;;;;5085482;28;20464;-68
2023/10/18 05:04:20;;;;;;;6.97;4.50;;;;;;;;;;5086776;28;20540;-68
2023/10/18 05:06:54;;;;;;;4.33;4.00;;;;;;;;;;5082890;28;20424;-68
2023/10/18 05:09:30;;;;;;;3.90;3.67;;;;;;;;;;5086253;28;20440;-68
2023/10/18 05:12:06;;;;;;;5.50;5.10;;;;;;;;;;5090041;28;20433;-68
2023/10/18 05:14:35;;;;;;;4.27;4.00;;;;;;;;;;5089315;28;20444;-68
2023/10/18 05:17:10;;;;;;;6.40;5.80;;;;;;;;;;5089646;28;20461;-68
2023/10/18 05:19:37;;;;;;;5.23;4.87;;;;;;;;;;5085047;28;20480;-68
2023/10/18 05:22:04;;;;;;;4.60;4.30;;;;;;;;;;5087658;28;20448;-68
2023/10/18 05:24:37;;;;;;;5.17;4.83;;;;;;;;;;5087241;28;20417;-69
2023/10/18 05:29:52;;;;;;;4.33;3.97;;;;;;;;;;5090416;28;20424;-67
2023/10/18 05:35:03;;;;;;;5.93;5.63;;;;;;;;;;5087289;28;20443;-67
2023/10/18 05:37:33;;;;;;;5.40;5.07;;;;;;;;;;5087090;28;20433;-68
2023/10/18 05:40:45;;;;;;;8.00;6.30;;;;;;;;;;5088095;28;20824;-68
2023/10/18 05:42:59;;;;;;;4.00;3.80;;;;;;;;;;5089269;28;20420;-69
2023/10/18 05:45:31;;;;;;;6.63;5.43;;;;;;;;;;5088785;28;20459;-68
2023/10/18 05:47:57;;;;;;;6.20;5.70;;;;;;;;;;5086396;28;20998;-68
2023/10/18 05:50:24;;;;;;;5.53;5.00;;;;;;;;;;5087476;28;20432;-68
2023/10/18 05:52:57;;;;;;;5.33;4.83;;;;;;;;;;5090125;28;20420;-68
2023/10/18 05:55:23;;;;;;;5.57;5.03;;;;;;;;;;5084377;28;20436;-68
2023/10/18 05:57:50;;;;;;;5.37;5.07;;;;;;;;;;5080905;28;21030;-68
2023/10/18 06:00:19;;;;;;;4.70;4.40;;;;;;;;;;5086527;28;20485;-68
2023/10/18 06:02:45;;;;;;;6.63;5.63;;;;;;;;;;5083849;28;20452;-68
2023/10/18 06:05:12;;;;;;;11.83;6.90;;;;;;;;;;5085669;28;21431;-64
2023/10/18 06:07:38;;;;;;;6.80;6.40;;;;;;;;;;5085035;28;20486;-68
2023/10/18 06:10:16;;;;;;;6.33;5.83;;;;;;;;;;5086567;28;20448;-66
2023/10/18 06:12:46;;;;;;;6.03;5.53;;;;;;;;;;5086533;28;20428;-67
2023/10/18 06:15:13;;;;;;;11.03;5.33;;;;;;;;;;5088321;28;20420;-66
2023/10/18 06:20:30;;;;;;;7.00;6.50;;;;;;;;;;5085706;28;21061;-67
2023/10/18 06:23:08;;;;;;;5.80;5.50;;;;;;;;;;5088338;28;20420;-67
2023/10/18 06:25:44;;;;;;;6.90;6.43;;;;;;;;;;5085878;28;20432;-68
2023/10/18 06:28:11;;;;;;;8.53;7.83;;;;;;;;;;5089794;28;20931;-68
2023/10/18 06:30:40;;;;;;;7.37;6.70;;;;;;;;;;5087916;28;20451;-68
2023/10/18 06:33:07;;;;;;;11.57;6.87;;;;;;;;;;5083288;28;20511;-67
2023/10/18 06:35:42;;;;;;;8.37;7.57;;;;;;;;;;5085604;28;21016;-68
2023/10/18 06:38:09;;;;;;;8.30;6.33;;;;;;;;;;5086328;28;20778;-68
2023/10/18 06:40:50;;;;;;;6.60;6.00;;;;;;;;;;5089294;28;20487;-69
2023/10/18 06:43:16;;;;;;;6.90;6.30;;;;;;;;;;5090030;28;20423;-68
2023/10/18 06:45:46;;;;;;;5.57;5.17;;;;;;;;;;5086961;28;20433;-68
2023/10/18 06:48:14;;;;;;;5.50;5.17;;;;;;;;;;5088488;28;20420;-67
2023/10/18 06:50:40;;;;;;;5.87;5.37;;;;;;;;;;5088705;28;20951;-68
2023/10/18 06:53:06;;;;;;;6.23;4.47;;;;;;;;;;5086630;28;20444;-68
2023/10/18 06:55:35;;;;;;;6.00;5.70;;;;;;;;;;5081721;28;20447;-68
2023/10/18 06:58:41;;;;;;;8.10;6.10;;;;;;;;;;5086671;28;20456;-68
2023/10/18 07:00:53;;;;;;;7.50;6.80;;;;;;;;;;5085825;28;20480;-68
2023/10/18 07:03:27;;;;;;;7.23;6.00;;;;;;;;;;5085233;28;21121;-68
2023/10/18 07:05:54;;;;;;;8.63;5.90;;;;;;;;;;5086704;28;20435;-69
2023/10/18 07:08:20;;;;;;;6.00;5.67;;;;;;;;;;5086769;28;20947;-68
2023/10/18 07:10:56;;;;;;;6.63;5.60;;;;;;;;;;5087091;28;20432;-68
2023/10/18 07:13:38;;;;;;;5.73;5.33;;;;;;;;;;5088427;28;20408;-60
2023/10/18 07:16:48;;;;;;;6.23;5.80;;;;;;;;;;5088277;28;20534;-68
2023/10/18 07:21:32;;;;;;;10.40;7.17;;;;;;;;;;5087423;28;20510;-68
2023/10/18 07:24:09;;;;;;;8.57;7.67;;;;;;;;;;5087385;28;20428;-68
2023/10/18 07:26:35;;;;;;;7.40;6.70;;;;;;;;;;5080891;28;20428;-68
2023/10/18 07:29:06;;;;;;;10.70;7.13;;;;;;;;;;5086575;28;20435;-67
2023/10/18 07:31:35;;;;;;;8.77;7.40;;;;;;;;;;5086052;28;20439;-67
2023/10/18 07:34:03;;;;;;;12.03;6.90;;;;;;;;;;5085411;28;20479;-68
2023/10/18 07:36:30;;;;;;;8.57;7.87;;;;;;;;;;5088336;28;20432;-67
2023/10/18 07:38:56;;;;;;;7.57;6.97;;;;;;;;;;5087193;28;20533;-67
2023/10/18 07:41:28;;;;;;;7.60;6.77;;;;;;;;;;5091996;28;20428;-68
2023/10/18 07:43:56;;;;;;;7.37;6.80;;;;;;;;;;5090353;28;20958;-67
2023/10/18 07:46:25;;;;;;;7.60;7.00;;;;;;;;;;5093112;28;20416;-67
2023/10/18 07:49:00;;;;;;;8.60;7.57;;;;;;;;;;5087493;28;20508;-67
2023/10/18 07:51:31;;;;;;;9.03;7.60;;;;;;;;;;5089868;28;20420;-69
2023/10/18 07:53:59;;;;;;;7.80;7.00;;;;;;;;;;5089565;28;20804;-67
2023/10/18 07:56:29;;;;;;;12.83;8.00;;;;;;;;;;5091588;28;20472;-68
2023/10/18 07:58:55;;;;;;;10.10;7.23;;;;;;;;;;5091326;28;20515;-68
2023/10/18 08:02:07;;;;;;;8.70;7.90;;;;;;;;;;5085100;28;20539;-67
2023/10/18 08:04:11;;;;;;;8.73;7.07;;;;;;;;;;5089801;28;20946;-68
2023/10/18 08:06:39;;;;;;;7.70;7.20;;;;;;;;;;5093418;28;20513;-67
2023/10/18 08:09:05;;;;;;;7.97;7.30;;;;;;;;;;5093197;28;20448;-68
2023/10/18 08:11:34;;;;;;;11.10;8.63;;;;;;;;;;5089653;28;20448;-67
2023/10/18 08:14:09;;;;;;;9.13;8.27;;;;;;;;;;5085742;28;20439;-68
2023/10/18 08:16:44;;;;;;;13.13;8.20;;;;;;;;;;5093080;28;20493;-67
2023/10/18 08:19:11;;;;;;;9.40;8.50;;;;;;;;;;5091750;28;20463;-67
2023/10/18 08:21:38;;;;;;;10.70;8.00;;;;;;;;;;5088536;28;20467;-67
2023/10/18 08:24:25;;;;;;;11.43;9.13;;;;;;;;;;5090898;28;20428;-67
2023/10/18 08:26:51;;;;;;;11.40;9.37;;;;;;;;;;5093112;28;20458;-67
2023/10/18 08:29:18;;;;;;;13.63;9.50;;;;;;;;;;5091059;28;20854;-67
2023/10/18 08:31:48;;;;;;;4.80;4.50;;;;;;;;;;5089995;28;20793;-67
2023/10/18 08:34:18;;;;;;;24.83;10.70;;;;;;;;;;5090356;28;20805;-67
2023/10/18 08:36:44;;;;;;;13.17;10.47;;;;;;;;;;5092523;28;20413;-68
2023/10/18 08:39:10;;;;;;;12.80;10.37;;;;;;;;;;5092572;28;22561;-67
2023/10/18 08:41:44;;;;;;;14.43;10.63;;;;;;;;;;5091419;28;20428;-68
2023/10/18 08:44:19;;;;;;;10.33;9.10;;;;;;;;;;5088977;28;20536;-67
2023/10/18 08:49:33;;;;;;;12.50;9.70;;;;;;;;;;5090120;28;20957;-67
2023/10/18 08:52:08;;;;;;;13.70;10.60;;;;;;;;;;5091814;28;20413;-67
2023/10/18 08:54:36;;;;;;;11.63;9.63;;;;;;;;;;5088356;28;20436;-67
2023/10/18 08:57:08;;;;;;;10.40;9.50;;;;;;;;;;5090719;28;20477;-67
2023/10/18 08:59:50;;;;;;;10.33;9.23;;;;;;;;;;5089807;28;20553;-67
2023/10/18 09:02:23;;;;;;;13.73;9.57;;;;;;;;;;5090899;28;20416;-67
2023/10/18 09:04:54;;;;;;;12.23;9.80;;;;;;;;;;5090229;28;20445;-67
2023/10/18 09:10:13;;;;;;;10.83;9.57;;;;;;;;;;5090165;28;20478;-67
2023/10/18 09:17:56;;;;;;;14.73;9.03;;;;;;;;;;5090232;28;20428;-67
2023/10/18 09:20:26;;;;;;;10.23;9.23;;;;;;;;;;5091656;28;20480;-67
2023/10/18 09:22:52;;;;;;;10.70;7.77;;;;;;;;;;5091620;28;20455;-67
2023/10/18 09:25:20;;;;;;;11.20;9.50;;;;;;;;;;5088757;28;20428;-67
2023/10/18 09:27:46;;;;;;;11.10;9.97;;;;;;;;;;5089238;28;20932;-67
2023/10/18 09:30:18;;;;;;;15.57;11.50;;;;;;;;;;5091329;28;20916;-67
2023/10/18 09:32:45;;;;;;;10.63;9.53;;;;;;;;;;5091066;28;20458;-67
2023/10/18 09:35:11;;;;;;;12.80;9.20;;;;;;;;;;5088951;28;20464;-67
2023/10/18 09:37:38;;;;;;;11.47;10.27;;;;;;;;;;5088330;28;20833;-68
2023/10/18 09:40:04;;;;;;;11.30;9.73;;;;;;;;;;5088058;28;20549;-67
2023/10/18 09:42:30;;;;;;;12.40;11.10;;;;;;;;;;5091534;28;20409;-67
2023/10/18 09:44:57;;;;;;;13.17;10.47;;;;;;;;;;5091341;28;20424;-67
2023/10/18 09:47:27;;;;;;;11.43;10.30;;;;;;;;;;5090004;28;20485;-69
2023/10/18 09:49:56;;;;;;;14.13;10.17;;;;;;;;;;5087618;28;20441;-68
2023/10/18 09:52:24;;;;;;;22.20;11.53;;;;;;;;;;5089193;28;20417;-67
2023/10/18 09:54:50;;;;;;;12.83;10.90;;;;;;;;;;5089522;28;20479;-67
2023/10/18 09:57:27;;;;;;;14.37;11.93;;;;;;;;;;5089541;28;20460;-67
2023/10/18 09:59:56;;;;;;;14.83;11.23;;;;;;;;;;5088938;28;21240;-67
2023/10/18 10:02:23;;;;;;;12.90;10.80;;;;;;;;;;5089263;28;20494;-67
2023/10/18 10:05:04;;;;;;;12.60;11.33;;;;;;;;;;5085173;28;20966;-67
2023/10/18 10:07:41;;;;;;;13.30;11.13;;;;;;;;;;5089813;28;20432;-67
2023/10/18 10:10:07;;;;;;;13.97;10.93;;;;;;;;;;5090823;28;20456;-68
2023/10/18 10:12:34;;;;;;;21.20;11.17;;;;;;;;;;5082212;28;20464;-67
2023/10/18 10:15:00;;;;;;;14.37;9.93;;;;;;;;;;5087544;28;20433;-67
2023/10/18 10:17:28;;;;;;;15.83;10.07;;;;;;;;;;5086792;28;20421;-68
2023/10/18 10:19:56;;;;;;;14.60;10.47;;;;;;;;;;5084981;28;20488;-67
2023/10/18 10:22:24;;;;;;;12.80;10.20;;;;;;;;;;5090258;28;20409;-67
2023/10/18 10:25:05;;;;;;;12.73;10.63;;;;;;;;;;5083060;28;20975;-67
2023/10/18 10:30:02;;;;;;;15.33;11.30;;;;;;;;;;5087782;28;20439;-67
2023/10/18 10:32:28;;;;;;;13.17;10.87;;;;;;;;;;5087209;28;20543;-67
2023/10/18 10:35:17;;;;;;;13.37;10.27;;;;;;;;;;5086700;28;20519;-67
2023/10/18 10:37:47;;;;;;;10.73;9.70;;;;;;;;;;5087861;28;20944;-67
2023/10/18 10:40:19;;;;;;;10.27;9.37;;;;;;;;;;5086004;28;20562;-68
2023/10/18 10:42:49;;;;;;;11.93;9.97;;;;;;;;;;5085826;28;20817;-67
2023/10/18 10:45:53;;;;;;;11.87;10.67;;;;;;;;;;5087704;28;20468;-67
2023/10/18 10:51:25;;;;;;;13.37;10.47;;;;;;;;;;5086947;28;20444;-67
2023/10/18 10:53:57;;;;;;;15.00;11.27;;;;;;;;;;5049902;28;20505;-67
2023/10/18 10:56:26;;;;;;;15.43;10.57;;;;;;;;;;5088621;28;20847;-67
2023/10/18 10:58:55;;;;;;;15.47;10.53;;;;;;;;;;5089899;28;20493;-67
2023/10/18 11:01:39;;;;;;;12.87;10.33;;;;;;;;;;5089989;28;20516;-67
2023/10/18 11:04:11;;;;;;;14.70;11.57;;;;;;;;;;5084912;28;20428;-67
2023/10/18 11:06:42;;;;;;;16.90;11.07;;;;;;;;;;5087708;28;20440;-67
2023/10/18 11:09:09;;;;;;;25.40;14.50;;;;;;;;;;5089713;28;20943;-67
2023/10/18 11:11:35;;;;;;;11.03;6.83;;;;;;;;;;5090000;28;20427;-68
2023/10/18 11:14:05;;;;;;;16.77;12.03;;;;;;;;;;5086393;28;20414;-67
2023/10/18 11:16:31;;;;;;;16.23;11.43;;;;;;;;;;5081975;28;20436;-67
2023/10/18 11:19:00;;;;;;;15.53;12.77;;;;;;;;;;5085354;28;20493;-67
2023/10/18 11:21:29;;;;;;;19.73;13.33;;;;;;;;;;5084627;28;20543;-67
2023/10/18 11:24:02;;;;;;;13.37;10.60;;;;;;;;;;5088689;28;20433;-67
2023/10/18 11:26:28;;;;;;;22.47;16.80;;;;;;;;;;5089832;28;20421;-68
2023/10/18 11:29:05;;;;;;;13.17;11.80;;;;;;;;;;5086352;28;20512;-67
2023/10/18 11:31:32;;;;;;;18.17;14.40;;;;;;;;;;5089991;28;20439;-67
2023/10/18 11:34:07;;;;;;;11.23;10.23;;;;;;;;;;5086895;28;20420;-67
2023/10/18 11:36:34;;;;;;;15.63;11.37;;;;;;;;;;5088416;28;20428;-67
2023/10/18 11:39:07;;;;;;;16.90;13.50;;;;;;;;;;5089202;28;20404;-67
2023/10/18 11:41:34;;;;;;;16.47;13.03;;;;;;;;;;5082037;28;20440;-67
2023/10/18 11:44:06;;;;;;;14.33;9.73;;;;;;;;;;5082977;28;20428;-67
2023/10/18 11:46:46;;;;;;;19.10;11.27;;;;;;;;;;5089729;28;20481;-67
2023/10/18 11:49:12;;;;;;;18.60;10.63;;;;;;;;;;5089783;28;20404;-67
2023/10/18 11:51:42;;;;;;;16.20;10.07;;;;;;;;;;5089470;28;20835;-67
2023/10/18 11:54:12;;;;;;;15.93;10.00;;;;;;;;;;5083926;28;20535;-67
2023/10/18 11:56:38;;;;;;;9.63;8.50;;;;;;;;;;5087483;28;20479;-67
2023/10/18 11:59:05;;;;;;;14.37;10.77;;;;;;;;;;5089315;28;20424;-67
2023/10/18 12:01:33;;;;;;;12.20;10.57;;;;;;;;;;5089430;28;20458;-67
2023/10/18 12:04:00;;;;;;;15.33;11.90;;;;;;;;;;5088969;28;20417;-67
2023/10/18 12:06:26;;;;;;;17.70;11.97;;;;;;;;;;5085024;28;20488;-67
2023/10/18 12:09:25;;;;;;;18.93;9.90;;;;;;;;;;5088970;28;20501;-67
2023/10/18 12:11:41;;;;;;;23.10;9.93;;;;;;;;;;5087379;28;20576;-67
2023/10/18 12:14:08;;;;;;;14.27;10.23;;;;;;;;;;5085163;28;20573;-67
2023/10/18 12:16:34;;;;;;;16.00;11.67;;;;;;;;;;5089416;28;20416;-67
2023/10/18 12:19:00;;;;;;;11.00;9.87;;;;;;;;;;5084946;28;20515;-67
2023/10/18 12:21:29;;;;;;;13.83;10.70;;;;;;;;;;5086066;28;20433;-67
2023/10/18 12:23:56;;;;;;;14.00;10.47;;;;;;;;;;5088132;28;20573;-67
2023/10/18 12:26:24;;;;;;;14.30;10.67;;;;;;;;;;5092760;28;20447;-67
2023/10/18 12:28:52;;;;;;;12.70;11.17;;;;;;;;;;5093176;28;20419;-67
2023/10/18 12:31:26;;;;;;;12.90;9.27;;;;;;;;;;5089667;28;20436;-67
2023/10/18 12:33:57;;;;;;;19.83;8.60;;;;;;;;;;5089264;28;20530;-67
2023/10/18 12:36:32;;;;;;;18.93;13.07;;;;;;;;;;5093133;28;20425;-67
2023/10/18 12:38:58;;;;;;;12.97;10.53;;;;;;;;;;5092155;28;20408;-67
2023/10/18 12:41:31;;;;;;;13.83;12.43;;;;;;;;;;5092872;28;20424;-67
2023/10/18 12:43:57;;;;;;;18.30;11.53;;;;;;;;;;5088851;28;20420;-67
2023/10/18 12:46:23;;;;;;;19.80;10.80;;;;;;;;;;5089644;28;20436;-67
2023/10/18 12:48:49;;;;;;;18.60;9.80;;;;;;;;;;5091841;28;20423;-67
2023/10/18 12:51:17;;;;;;;19.70;11.80;;;;;;;;;;5088117;28;20485;-67
2023/10/18 12:53:47;;;;;;;15.33;11.80;;;;;;;;;;5090876;28;20991;-67
2023/10/18 12:58:54;;;;;;;15.97;12.07;;;;;;;;;;5090607;28;20992;-67
2023/10/18 13:01:22;;;;;;;12.57;10.23;;;;;;;;;;5092313;28;20872;-67
2023/10/18 13:03:57;;;;;;;16.27;10.10;;;;;;;;;;5091839;28;20412;-67
2023/10/18 13:06:35;;;;;;;9.20;8.30;;;;;;;;;;5092423;28;20420;-67
2023/10/18 13:09:19;;;;;;;13.50;11.20;;;;;;;;;;5087288;28;20520;-67
2023/10/18 13:11:44;;;;;;;9.63;8.67;;;;;;;;;;5092379;28;20404;-67
2023/10/18 13:14:14;;;;;;;11.60;9.80;;;;;;;;;;5091647;28;20432;-67
2023/10/18 13:16:40;;;;;;;15.97;12.00;;;;;;;;;;5092202;28;20416;-67
2023/10/18 13:19:06;;;;;;;19.00;12.40;;;;;;;;;;5092234;28;20511;-67
2023/10/18 13:21:32;;;;;;;12.23;10.90;;;;;;;;;;5089738;28;20596;-68
2023/10/18 13:27:00;;;;;;;15.90;13.00;;;;;;;;;;5063667;28;20447;-67
2023/10/18 13:31:59;;;;;;;14.60;10.80;;;;;;;;;;5090473;28;20424;-67
2023/10/18 13:34:32;;;;;;;14.40;12.90;;;;;;;;;;5083969;28;20441;-67
2023/10/18 13:36:59;;;;;;;12.90;11.60;;;;;;;;;;5089441;28;20455;-67
2023/10/18 13:39:27;;;;;;;13.43;11.40;;;;;;;;;;5090680;28;20479;-67
2023/10/18 13:41:53;;;;;;;17.40;10.80;;;;;;;;;;5090022;28;20440;-67
2023/10/18 13:44:23;;;;;;;12.67;10.10;;;;;;;;;;5087288;28;20486;-67
2023/10/18 13:46:54;;;;;;;11.73;9.67;;;;;;;;;;5089713;28;20436;-67
2023/10/18 13:49:23;;;;;;;10.60;8.93;;;;;;;;;;5088227;28;20497;-67
2023/10/18 13:51:50;;;;;;;27.23;10.80;;;;;;;;;;5087591;28;20535;-67
2023/10/18 13:54:15;;;;;;;13.30;9.50;;;;;;;;;;5088694;28;20417;-67
2023/10/18 13:56:43;;;;;;;14.00;8.90;;;;;;;;;;5087042;28;20480;-67
2023/10/18 13:59:09;;;;;;;11.37;9.50;;;;;;;;;;5089174;28;20459;-67
2023/10/18 14:01:38;;;;;;;16.43;9.50;;;;;;;;;;5087681;28;21008;-67
2023/10/18 14:04:05;;;;;;;13.90;9.00;;;;;;;;;;5087255;28;20417;-69
2023/10/18 14:06:32;;;;;;;14.30;9.97;;;;;;;;;;5071259;28;20504;-67
2023/10/18 14:08:58;;;;;;;27.77;9.87;;;;;;;;;;5088890;28;20429;-69
2023/10/18 14:11:25;;;;;;;16.10;12.80;;;;;;;;;;5089982;28;20565;-67
2023/10/18 14:13:54;;;;;;;11.30;10.30;;;;;;;;;;5083159;28;20440;-67
2023/10/18 14:16:20;;;;;;;24.83;10.00;;;;;;;;;;5087965;28;20444;-67
2023/10/18 14:18:47;;;;;;;19.00;11.17;;;;;;;;;;5083271;28;20444;-67
2023/10/18 14:21:14;;;;;;;11.67;10.07;;;;;;;;;;5085829;28;20487;-67
2023/10/18 14:23:41;;;;;;;17.57;9.17;;;;;;;;;;5089782;28;20420;-67
2023/10/18 14:26:07;;;;;;;12.87;9.87;;;;;;;;;;5088830;28;20931;-68
2023/10/18 14:28:33;;;;;;;18.17;11.67;;;;;;;;;;5086966;28;20931;-67
2023/10/18 14:30:59;;;;;;;13.20;10.43;;;;;;;;;;5085207;28;20514;-67
2023/10/18 14:33:28;;;;;;;11.00;9.77;;;;;;;;;;5084431;28;20445;-67
2023/10/18 14:35:54;;;;;;;24.20;11.20;;;;;;;;;;5087507;28;20440;-67
2023/10/18 14:38:20;;;;;;;13.47;9.73;;;;;;;;;;5088299;28;20448;-68
2023/10/18 14:40:46;;;;;;;15.20;10.33;;;;;;;;;;5086180;28;20487;-67
2023/10/18 14:43:13;;;;;;;14.10;7.90;;;;;;;;;;5088747;28;20442;-67
2023/10/18 14:45:41;;;;;;;12.73;9.10;;;;;;;;;;5087721;28;20463;-67
2023/10/18 14:48:07;;;;;;;14.53;10.57;;;;;;;;;;5090105;28;20849;-67
2023/10/18 14:50:35;;;;;;;14.87;10.80;;;;;;;;;;5087958;28;20444;-67
2023/10/18 14:53:01;;;;;;;14.50;10.50;;;;;;;;;;5087731;28;20435;-67
2023/10/18 14:55:28;;;;;;;12.87;10.47;;;;;;;;;;5084363;28;20873;-67
2023/10/18 14:57:54;;;;;;;13.00;9.77;;;;;;;;;;5089577;28;20521;-67
2023/10/18 15:00:20;;;;;;;10.87;8.80;;;;;;;;;;5087816;28;20487;-67
2023/10/18 15:02:50;;;;;;;18.03;10.60;;;;;;;;;;5088744;28;20451;-67
2023/10/18 15:05:17;;;;;;;15.63;11.80;;;;;;;;;;5090278;28;20711;-68
2023/10/18 15:07:44;;;;;;;19.40;10.77;;;;;;;;;;5087603;28;20421;-67
2023/10/18 15:10:10;;;;;;;23.33;10.50;;;;;;;;;;5089890;28;20501;-67
2023/10/18 15:12:36;;;;;;;15.37;10.33;;;;;;;;;;5087769;28;20948;-67
2023/10/18 15:15:03;;;;;;;9.47;7.93;;;;;;;;;;5087928;28;20869;-67
2023/10/18 15:17:29;;;;;;;20.87;10.57;;;;;;;;;;5087575;28;20421;-67
2023/10/18 15:19:55;;;;;;;11.07;7.43;;;;;;;;;;5087016;28;21116;-67
2023/10/18 15:22:21;;;;;;;16.97;11.40;;;;;;;;;;5088846;28;22179;-67
2023/10/18 15:24:52;;;;;;;11.50;10.27;;;;;;;;;;5085572;28;20436;-67
2023/10/18 15:27:18;;;;;;;16.10;10.83;;;;;;;;;;5084801;28;20436;-67
2023/10/18 15:29:44;;;;;;;10.50;9.53;;;;;;;;;;5085691;28;20426;-67
2023/10/18 15:32:14;;;;;;;10.57;9.47;;;;;;;;;;5087073;28;20433;-68
2023/10/18 15:34:40;;;;;;;10.00;7.20;;;;;;;;;;5087151;28;20432;-67
2023/10/18 15:37:09;;;;;;;10.00;8.57;;;;;;;;;;5086883;28;20432;-67
2023/10/18 15:39:35;;;;;;;8.40;7.20;;;;;;;;;;5086502;28;20504;-67
2023/10/18 15:42:01;;;;;;;11.70;9.80;;;;;;;;;;5087865;28;20432;-67